createdAt,value
2023-02-03T00:00:32.611Z,0.00
2023-02-03T00:01:32.630Z,0.00
2023-02-03T00:02:33.646Z,0.00
2023-02-03T00:03:32.576Z,0.00
2023-02-03T00:04:32.573Z,0.00
2023-02-03T00:05:32.590Z,0.00
2023-02-03T00:06:33.564Z,0.00
2023-02-03T00:07:33.570Z,0.00
2023-02-03T00:08:33.534Z,0.00
2023-02-03T00:09:32.572Z,0.00
2023-02-03T00:10:32.528Z,0.00
2023-02-03T00:11:32.527Z,0.00
2023-02-03T00:12:32.480Z,0.00
2023-02-03T00:13:32.494Z,0.00
2023-02-03T00:14:32.523Z,0.00
2023-02-03T00:15:32.468Z,0.00
2023-02-03T00:16:32.531Z,0.00
2023-02-03T00:17:32.432Z,0.00
2023-02-03T00:18:32.452Z,0.00
2023-02-03T00:19:32.441Z,0.00
2023-02-03T00:20:32.425Z,0.00
2023-02-03T00:21:32.449Z,0.00
2023-02-03T00:22:33.384Z,0.00
2023-02-03T00:23:33.406Z,0.00
2023-02-03T00:24:32.363Z,0.00
2023-02-03T00:25:32.374Z,0.00
2023-02-03T00:26:32.367Z,0.00
2023-02-03T00:27:32.356Z,0.00
2023-02-03T00:28:33.318Z,0.00
2023-02-03T00:29:32.326Z,0.00
2023-02-03T00:30:32.354Z,0.00
2023-02-03T00:31:32.472Z,0.00
2023-02-03T00:32:32.417Z,0.00
2023-02-03T00:33:32.272Z,0.00
2023-02-03T00:34:33.250Z,0.00
2023-02-03T00:35:32.249Z,0.00
2023-02-03T00:36:33.264Z,0.00
2023-02-03T00:37:32.256Z,0.00
2023-02-03T00:38:32.245Z,0.00
2023-02-03T00:39:32.186Z,0.00
2023-02-03T00:40:32.176Z,0.00
2023-02-03T00:41:32.197Z,0.00
2023-02-03T00:42:32.178Z,0.00
2023-02-03T00:43:32.176Z,0.00
2023-02-03T00:44:32.147Z,0.00
2023-02-03T00:45:32.197Z,0.00
2023-02-03T00:46:32.167Z,0.00
2023-02-03T00:47:32.166Z,0.00
2023-02-03T00:48:32.108Z,0.00
2023-02-03T00:49:32.111Z,0.00
2023-02-03T00:50:32.085Z,0.00
2023-02-03T00:51:33.074Z,0.00
2023-02-03T00:52:33.103Z,0.00
2023-02-03T00:53:32.042Z,0.00
2023-02-03T00:54:33.810Z,0.00
2023-02-03T00:55:32.060Z,0.00
2023-02-03T00:56:32.042Z,0.00
2023-02-03T00:57:32.001Z,0.00
2023-02-03T00:58:33.016Z,0.00
2023-02-03T00:59:32.020Z,0.00
2023-02-03T01:00:32.998Z,0.00
2023-02-03T01:01:32.050Z,0.00
2023-02-03T01:02:32.034Z,0.00
2023-02-03T01:03:31.932Z,0.00
2023-02-03T01:04:32.968Z,0.00
2023-02-03T01:05:31.915Z,0.00
2023-02-03T01:06:32.895Z,0.00
2023-02-03T01:07:31.940Z,0.00
2023-02-03T01:08:31.892Z,0.00
2023-02-03T01:09:31.893Z,0.00
2023-02-03T01:10:31.888Z,0.00
2023-02-03T01:11:31.865Z,0.00
2023-02-03T01:12:31.879Z,0.00
2023-02-03T01:13:31.826Z,0.00
2023-02-03T01:14:31.819Z,0.00
2023-02-03T01:15:31.806Z,0.00
2023-02-03T01:16:31.816Z,0.00
2023-02-03T01:17:32.814Z,0.00
2023-02-03T01:18:31.807Z,0.00
2023-02-03T01:19:31.833Z,0.00
2023-02-03T01:20:31.771Z,0.00
2023-02-03T01:21:31.808Z,0.00
2023-02-03T01:22:31.763Z,0.00
2023-02-03T01:23:31.717Z,0.00
2023-02-03T01:24:31.718Z,0.00
2023-02-03T01:25:31.698Z,0.00
2023-02-03T01:26:31.731Z,0.00
2023-02-03T01:27:31.712Z,0.00
2023-02-03T01:28:31.691Z,0.00
2023-02-03T01:29:31.668Z,0.00
2023-02-03T01:30:31.710Z,0.00
2023-02-03T01:31:31.862Z,0.00
2023-02-03T01:32:31.693Z,0.00
2023-02-03T01:33:32.637Z,0.00
2023-02-03T01:34:31.633Z,0.00
2023-02-03T01:35:31.595Z,0.00
2023-02-03T01:36:31.626Z,0.00
2023-02-03T01:37:32.611Z,0.00
2023-02-03T01:38:31.571Z,0.00
2023-02-03T01:39:31.567Z,0.00
2023-02-03T01:40:31.555Z,0.00
2023-02-03T01:41:32.565Z,0.00
2023-02-03T01:42:32.515Z,0.00
2023-02-03T01:43:32.518Z,0.00
2023-02-03T01:44:32.568Z,0.00
2023-02-03T01:45:32.077Z,0.00
2023-02-03T01:46:31.566Z,0.00
2023-02-03T01:47:31.469Z,0.00
2023-02-03T01:48:31.475Z,0.00
2023-02-03T01:49:32.451Z,0.00
2023-02-03T01:50:31.481Z,0.00
2023-02-03T01:51:32.059Z,0.00
2023-02-03T01:52:31.467Z,0.00
2023-02-03T01:53:32.433Z,0.00
2023-02-03T01:54:31.419Z,0.00
2023-02-03T01:55:31.390Z,0.00
2023-02-03T01:56:31.379Z,0.00
2023-02-03T01:57:32.083Z,0.00
2023-02-03T01:58:31.344Z,0.00
2023-02-03T01:59:31.345Z,0.00
2023-02-03T02:00:31.345Z,0.00
2023-02-03T02:01:31.442Z,0.00
2023-02-03T02:02:31.385Z,0.00
2023-02-03T02:03:31.339Z,0.00
2023-02-03T02:04:31.326Z,0.00
2023-02-03T02:05:31.282Z,0.00
2023-02-03T02:06:31.299Z,0.00
2023-02-03T02:07:31.276Z,0.00
2023-02-03T02:08:31.280Z,0.00
2023-02-03T02:09:31.272Z,0.00
2023-02-03T02:10:31.301Z,0.00
2023-02-03T02:11:32.247Z,0.00
2023-02-03T02:12:31.238Z,0.00
2023-02-03T02:13:31.207Z,0.00
2023-02-03T02:14:31.175Z,0.00
2023-02-03T02:15:31.257Z,0.00
2023-02-03T02:16:32.163Z,0.00
2023-02-03T02:17:31.175Z,0.00
2023-02-03T02:18:32.208Z,0.00
2023-02-03T02:19:31.119Z,0.00
2023-02-03T02:20:32.129Z,0.00
2023-02-03T02:21:32.074Z,0.00
2023-02-03T02:22:32.108Z,0.00
2023-02-03T02:23:31.109Z,0.00
2023-02-03T02:24:32.092Z,0.00
2023-02-03T02:25:31.080Z,0.00
2023-02-03T02:26:32.055Z,0.00
2023-02-03T02:27:31.059Z,0.00
2023-02-03T02:28:31.074Z,0.00
2023-02-03T02:29:31.049Z,0.00
2023-02-03T02:30:32.029Z,0.00
2023-02-03T02:31:31.116Z,0.00
2023-02-03T02:32:30.977Z,0.00
2023-02-03T02:33:31.007Z,0.00
2023-02-03T02:34:30.990Z,0.00
2023-02-03T02:35:30.986Z,0.00
2023-02-03T02:36:30.947Z,0.00
2023-02-03T02:37:30.943Z,0.00
2023-02-03T02:38:30.947Z,0.00
2023-02-03T02:39:30.946Z,0.00
2023-02-03T02:40:31.893Z,0.00
2023-02-03T02:41:31.917Z,0.00
2023-02-03T02:42:31.869Z,0.00
2023-02-03T02:43:30.873Z,0.00
2023-02-03T02:44:30.865Z,0.00
2023-02-03T02:45:30.884Z,0.00
2023-02-03T02:46:30.943Z,0.00
2023-02-03T02:47:30.877Z,0.00
2023-02-03T02:48:30.809Z,0.00
2023-02-03T02:49:30.795Z,0.00
2023-02-03T02:50:31.829Z,0.00
2023-02-03T02:51:30.832Z,0.00
2023-02-03T02:52:30.782Z,0.00
2023-02-03T02:53:30.800Z,0.00
2023-02-03T02:54:30.778Z,0.00
2023-02-03T02:55:30.735Z,0.00
2023-02-03T02:56:31.771Z,0.00
2023-02-03T02:57:30.713Z,0.00
2023-02-03T02:58:30.734Z,0.00
2023-02-03T02:59:31.703Z,0.00
2023-02-03T03:00:31.712Z,0.00
2023-02-03T03:01:30.729Z,0.00
2023-02-03T03:02:31.666Z,0.00
2023-02-03T03:03:30.656Z,0.00
2023-02-03T03:04:30.755Z,0.00
2023-02-03T03:05:30.652Z,0.00
2023-02-03T03:06:30.681Z,0.00
2023-02-03T03:07:30.624Z,0.00
2023-02-03T03:08:30.616Z,0.00
2023-02-03T03:09:31.599Z,0.00
2023-02-03T03:10:30.622Z,0.00
2023-02-03T03:11:30.588Z,0.00
2023-02-03T03:12:30.570Z,0.00
2023-02-03T03:13:30.549Z,0.00
2023-02-03T03:14:31.564Z,0.00
2023-02-03T03:15:30.546Z,0.00
2023-02-03T03:16:30.518Z,0.00
2023-02-03T03:17:30.531Z,0.00
2023-02-03T03:18:31.521Z,0.00
2023-02-03T03:19:30.567Z,0.00
2023-02-03T03:20:31.487Z,0.00
2023-02-03T03:21:30.461Z,0.00
2023-02-03T03:22:30.450Z,0.00
2023-02-03T03:23:30.443Z,0.00
2023-02-03T03:24:30.436Z,0.00
2023-02-03T03:25:30.491Z,0.00
2023-02-03T03:26:30.446Z,0.00
2023-02-03T03:27:30.399Z,0.00
2023-02-03T03:28:30.398Z,0.00
2023-02-03T03:29:30.377Z,0.00
2023-02-03T03:30:30.362Z,0.00
2023-02-03T03:31:30.494Z,0.00
2023-02-03T03:32:30.339Z,0.00
2023-02-03T03:33:31.347Z,0.00
2023-02-03T03:34:30.305Z,0.00
2023-02-03T03:35:30.305Z,0.00
2023-02-03T03:36:30.295Z,0.00
2023-02-03T03:37:31.277Z,0.00
2023-02-03T03:38:30.306Z,0.00
2023-02-03T03:39:30.295Z,0.00
2023-02-03T03:40:30.253Z,0.00
2023-02-03T03:41:30.251Z,0.00
2023-02-03T03:42:31.899Z,0.00
2023-02-03T03:43:30.211Z,0.00
2023-02-03T03:44:31.250Z,0.00
2023-02-03T03:45:31.185Z,0.00
2023-02-03T03:46:30.302Z,0.00
2023-02-03T03:47:31.188Z,0.00
2023-02-03T03:48:30.174Z,0.00
2023-02-03T03:49:31.164Z,0.00
2023-02-03T03:50:30.170Z,0.00
2023-02-03T03:51:31.165Z,0.00
2023-02-03T03:52:30.142Z,0.00
2023-02-03T03:53:30.096Z,0.00
2023-02-03T03:54:30.112Z,0.00
2023-02-03T03:55:30.069Z,0.00
2023-02-03T03:56:30.109Z,0.00
2023-02-03T03:57:30.080Z,0.00
2023-02-03T03:58:31.070Z,0.00
2023-02-03T03:59:31.026Z,0.00
2023-02-03T04:00:37.712Z,0.00
2023-02-03T04:01:31.170Z,0.00
2023-02-03T04:02:30.122Z,0.00
2023-02-03T04:03:30.048Z,0.00
2023-02-03T04:04:31.015Z,0.00
2023-02-03T04:05:30.957Z,0.00
2023-02-03T04:06:30.988Z,0.00
2023-02-03T04:07:29.978Z,0.00
2023-02-03T04:08:29.959Z,0.00
2023-02-03T04:09:29.922Z,0.00
2023-02-03T04:10:29.929Z,0.00
2023-02-03T04:11:30.951Z,0.00
2023-02-03T04:12:30.894Z,0.00
2023-02-03T04:13:29.899Z,0.00
2023-02-03T04:14:29.889Z,0.00
2023-02-03T04:15:30.863Z,0.00
2023-02-03T04:16:29.969Z,0.00
2023-02-03T04:17:29.857Z,0.00
2023-02-03T04:18:29.850Z,0.00
2023-02-03T04:19:29.837Z,0.00
2023-02-03T04:20:30.035Z,0.00
2023-02-03T04:21:29.790Z,0.00
2023-02-03T04:22:30.780Z,0.00
2023-02-03T04:23:29.776Z,0.00
2023-02-03T04:24:30.905Z,0.00
2023-02-03T04:25:29.764Z,0.00
2023-02-03T04:26:29.766Z,0.00
2023-02-03T04:27:29.738Z,0.00
2023-02-03T04:28:29.752Z,0.00
2023-02-03T04:29:30.740Z,0.00
2023-02-03T04:30:30.028Z,0.00
2023-02-03T04:31:29.806Z,0.00
2023-02-03T04:32:29.670Z,0.00
2023-02-03T04:33:29.664Z,0.00
2023-02-03T04:34:29.670Z,0.00
2023-02-03T04:35:29.651Z,0.00
2023-02-03T04:36:29.641Z,0.00
2023-02-03T04:37:30.618Z,0.00
2023-02-03T04:38:29.605Z,0.00
2023-02-03T04:39:29.582Z,0.00
2023-02-03T04:40:29.895Z,0.00
2023-02-03T04:41:29.576Z,0.00
2023-02-03T04:42:29.563Z,0.00
2023-02-03T04:43:30.595Z,0.00
2023-02-03T04:44:29.527Z,0.00
2023-02-03T04:45:29.560Z,0.00
2023-02-03T04:46:29.553Z,0.00
2023-02-03T04:47:29.512Z,0.00
2023-02-03T04:48:30.498Z,0.00
2023-02-03T04:49:29.515Z,0.00
2023-02-03T04:50:29.565Z,0.00
2023-02-03T04:51:30.449Z,0.00
2023-02-03T04:52:29.460Z,0.00
2023-02-03T04:53:29.447Z,0.00
2023-02-03T04:54:30.481Z,0.00
2023-02-03T04:55:29.447Z,0.00
2023-02-03T04:56:29.409Z,0.00
2023-02-03T04:57:29.423Z,0.00
2023-02-03T04:58:29.389Z,0.00
2023-02-03T04:59:29.401Z,0.00
2023-02-03T05:00:29.761Z,0.00
2023-02-03T05:01:30.350Z,0.00
2023-02-03T05:02:30.399Z,0.00
2023-02-03T05:03:29.453Z,0.00
2023-02-03T05:04:29.320Z,0.00
2023-02-03T05:05:29.321Z,0.00
2023-02-03T05:06:29.306Z,0.00
2023-02-03T05:07:30.301Z,0.00
2023-02-03T05:08:29.269Z,0.00
2023-02-03T05:09:29.367Z,0.00
2023-02-03T05:10:29.594Z,0.00
2023-02-03T05:11:30.232Z,0.00
2023-02-03T05:12:29.261Z,0.00
2023-02-03T05:13:29.282Z,0.00
2023-02-03T05:14:29.220Z,0.00
2023-02-03T05:15:30.216Z,0.00
2023-02-03T05:16:29.302Z,0.00
2023-02-03T05:17:29.197Z,0.00
2023-02-03T05:18:29.188Z,0.00
2023-02-03T05:19:30.164Z,0.00
2023-02-03T05:20:29.471Z,0.00
2023-02-03T05:21:29.162Z,0.00
2023-02-03T05:22:29.127Z,0.00
2023-02-03T05:23:30.118Z,0.00
2023-02-03T05:24:29.094Z,0.00
2023-02-03T05:25:29.111Z,0.00
2023-02-03T05:26:29.093Z,0.00
2023-02-03T05:27:29.073Z,0.00
2023-02-03T05:28:29.065Z,0.00
2023-02-03T05:29:29.064Z,0.00
2023-02-03T05:30:29.574Z,0.00
2023-02-03T05:31:30.073Z,0.00
2023-02-03T05:32:29.018Z,0.00
2023-02-03T05:33:28.993Z,0.00
2023-02-03T05:34:29.016Z,0.00
2023-02-03T05:35:28.991Z,0.00
2023-02-03T05:36:29.017Z,0.00
2023-02-03T05:37:28.971Z,0.00
2023-02-03T05:38:28.942Z,0.00
2023-02-03T05:39:28.981Z,0.00
2023-02-03T05:40:29.329Z,0.00
2023-02-03T05:41:28.901Z,0.00
2023-02-03T05:42:28.893Z,0.00
2023-02-03T05:43:28.910Z,0.00
2023-02-03T05:44:29.895Z,0.00
2023-02-03T05:45:28.923Z,0.00
2023-02-03T05:46:28.881Z,0.00
2023-02-03T05:47:28.867Z,0.00
2023-02-03T05:48:28.845Z,0.00
2023-02-03T05:49:28.817Z,0.00
2023-02-03T05:50:29.217Z,0.00
2023-02-03T05:51:28.850Z,0.00
2023-02-03T05:52:29.787Z,0.00
2023-02-03T05:53:28.789Z,0.00
2023-02-03T05:54:28.793Z,0.00
2023-02-03T05:55:28.764Z,0.00
2023-02-03T05:56:29.807Z,0.00
2023-02-03T05:57:30.184Z,0.00
2023-02-03T05:58:28.742Z,0.00
2023-02-03T05:59:29.714Z,0.00
2023-02-03T06:00:29.118Z,0.00
2023-02-03T06:01:29.684Z,0.00
2023-02-03T06:02:28.687Z,0.00
2023-02-03T06:03:28.740Z,0.00
2023-02-03T06:04:28.708Z,0.00
2023-02-03T06:05:28.642Z,0.00
2023-02-03T06:06:29.676Z,0.00
2023-02-03T06:07:28.634Z,0.00
2023-02-03T06:08:29.626Z,0.00
2023-02-03T06:09:28.616Z,0.00
2023-02-03T06:10:29.093Z,0.00
2023-02-03T06:11:28.627Z,0.00
2023-02-03T06:12:29.580Z,0.00
2023-02-03T06:13:28.635Z,0.00
2023-02-03T06:14:29.572Z,0.00
2023-02-03T06:15:28.553Z,0.00
2023-02-03T06:16:28.588Z,0.00
2023-02-03T06:17:28.581Z,0.00
2023-02-03T06:18:28.510Z,0.00
2023-02-03T06:19:28.507Z,0.00
2023-02-03T06:20:28.980Z,0.00
2023-02-03T06:21:28.527Z,0.00
2023-02-03T06:22:29.510Z,0.00
2023-02-03T06:23:28.453Z,0.00
2023-02-03T06:24:28.446Z,0.00
2023-02-03T06:25:28.448Z,0.00
2023-02-03T06:26:28.437Z,0.00
2023-02-03T06:27:28.443Z,0.00
2023-02-03T06:28:28.431Z,0.00
2023-02-03T06:29:28.442Z,0.00
2023-02-03T06:30:28.828Z,0.00
2023-02-03T06:31:28.536Z,0.00
2023-02-03T06:32:28.359Z,0.00
2023-02-03T06:33:28.368Z,0.00
2023-02-03T06:34:28.374Z,0.00
2023-02-03T06:35:29.421Z,0.00
2023-02-03T06:36:29.317Z,0.00
2023-02-03T06:37:28.299Z,0.00
2023-02-03T06:38:28.322Z,0.00
2023-02-03T06:39:28.296Z,0.00
2023-02-03T06:40:28.769Z,0.00
2023-02-03T06:41:28.269Z,0.00
2023-02-03T06:42:28.265Z,0.00
2023-02-03T06:43:28.239Z,0.00
2023-02-03T06:44:28.245Z,0.00
2023-02-03T06:45:28.247Z,0.00
2023-02-03T06:46:28.316Z,0.00
2023-02-03T06:47:28.192Z,0.00
2023-02-03T06:48:28.192Z,0.00
2023-02-03T06:49:29.189Z,0.00
2023-02-03T06:50:29.744Z,0.00
2023-02-03T06:51:29.172Z,4.00
2023-02-03T06:52:28.153Z,4.00
2023-02-03T06:53:28.140Z,4.00
2023-02-03T06:54:29.144Z,4.00
2023-02-03T06:55:28.112Z,4.00
2023-02-03T06:56:28.148Z,4.00
2023-02-03T06:57:28.112Z,4.00
2023-02-03T06:58:28.094Z,0.00
2023-02-03T06:59:28.069Z,0.00
2023-02-03T07:00:28.499Z,0.00
2023-02-03T07:01:28.067Z,4.00
2023-02-03T07:02:28.175Z,4.00
2023-02-03T07:03:28.035Z,4.00
2023-02-03T07:04:28.018Z,4.00
2023-02-03T07:05:28.197Z,4.00
2023-02-03T07:06:28.044Z,4.00
2023-02-03T07:07:27.982Z,4.00
2023-02-03T07:08:27.988Z,4.00
2023-02-03T07:09:27.950Z,8.00
2023-02-03T07:10:28.284Z,4.00
2023-02-03T07:11:27.923Z,4.00
2023-02-03T07:12:27.947Z,8.00
2023-02-03T07:13:27.932Z,8.00
2023-02-03T07:14:27.924Z,8.00
2023-02-03T07:15:27.917Z,8.00
2023-02-03T07:16:27.890Z,8.00
2023-02-03T07:17:27.892Z,8.00
2023-02-03T07:18:47.009Z,8.00
2023-02-03T07:19:28.835Z,8.00
2023-02-03T07:20:28.171Z,8.00
2023-02-03T07:21:27.831Z,8.00
2023-02-03T07:22:27.835Z,12.00
2023-02-03T07:23:27.844Z,8.00
2023-02-03T07:24:28.816Z,8.00
2023-02-03T07:25:27.816Z,8.00
2023-02-03T07:26:27.791Z,8.00
2023-02-03T07:27:27.773Z,8.00
2023-02-03T07:28:27.804Z,8.00
2023-02-03T07:29:27.744Z,8.00
2023-02-03T07:30:28.112Z,8.00
2023-02-03T07:31:27.857Z,8.00
2023-02-03T07:32:27.739Z,12.00
2023-02-03T07:33:27.686Z,8.00
2023-02-03T07:34:28.692Z,8.00
2023-02-03T07:35:28.712Z,12.00
2023-02-03T07:36:27.680Z,12.00
2023-02-03T07:37:28.660Z,12.00
2023-02-03T07:38:27.696Z,12.00
2023-02-03T07:39:27.656Z,12.00
2023-02-03T07:40:27.949Z,12.00
2023-02-03T07:41:27.627Z,12.00
2023-02-03T07:42:27.622Z,16.00
2023-02-03T07:43:27.622Z,16.00
2023-02-03T07:44:28.563Z,16.00
2023-02-03T07:45:27.580Z,16.00
2023-02-03T07:46:27.616Z,16.00
2023-02-03T07:47:27.541Z,16.00
2023-02-03T07:48:27.544Z,20.00
2023-02-03T07:49:27.549Z,16.00
2023-02-03T07:50:27.869Z,16.00
2023-02-03T07:51:27.589Z,20.00
2023-02-03T07:52:27.527Z,20.00
2023-02-03T07:53:27.536Z,20.00
2023-02-03T07:54:28.503Z,20.00
2023-02-03T07:55:28.446Z,20.00
2023-02-03T07:56:27.451Z,16.00
2023-02-03T07:57:28.514Z,20.00
2023-02-03T07:58:27.462Z,16.00
2023-02-03T07:59:27.403Z,20.00
2023-02-03T08:00:27.825Z,20.00
2023-02-03T08:01:27.434Z,24.00
2023-02-03T08:02:27.416Z,20.00
2023-02-03T08:03:27.378Z,24.00
2023-02-03T08:04:27.461Z,28.00
2023-02-03T08:05:27.389Z,28.00
2023-02-03T08:06:27.355Z,28.00
2023-02-03T08:07:28.319Z,28.00
2023-02-03T08:08:27.337Z,28.00
2023-02-03T08:09:28.299Z,28.00
2023-02-03T08:10:27.716Z,32.00
2023-02-03T08:11:27.342Z,36.00
2023-02-03T08:12:27.291Z,36.00
2023-02-03T08:13:27.279Z,36.00
2023-02-03T08:14:28.277Z,32.00
2023-02-03T08:15:27.248Z,36.00
2023-02-03T08:16:28.352Z,36.00
2023-02-03T08:17:27.243Z,40.00
2023-02-03T08:18:27.247Z,36.00
2023-02-03T08:19:27.190Z,40.00
2023-02-03T08:20:27.643Z,40.00
2023-02-03T08:21:27.181Z,40.00
2023-02-03T08:22:28.168Z,36.00
2023-02-03T08:23:28.195Z,40.00
2023-02-03T08:24:27.169Z,36.00
2023-02-03T08:25:27.129Z,36.00
2023-02-03T08:26:27.120Z,36.00
2023-02-03T08:27:28.111Z,36.00
2023-02-03T08:28:28.112Z,32.00
2023-02-03T08:29:27.152Z,32.00
2023-02-03T08:30:27.588Z,36.00
2023-02-03T08:31:27.180Z,32.00
2023-02-03T08:32:28.063Z,40.00
2023-02-03T08:33:27.121Z,40.00
2023-02-03T08:34:27.050Z,40.00
2023-02-03T08:35:27.047Z,40.00
2023-02-03T08:36:27.052Z,44.00
2023-02-03T08:37:27.047Z,40.00
2023-02-03T08:38:27.049Z,48.00
2023-02-03T08:39:26.989Z,48.00
2023-02-03T08:40:28.359Z,56.00
2023-02-03T08:41:27.945Z,60.00
2023-02-03T08:42:27.949Z,72.00
2023-02-03T08:43:27.959Z,68.00
2023-02-03T08:44:26.933Z,72.00
2023-02-03T08:45:26.958Z,72.00
2023-02-03T08:46:26.932Z,64.00
2023-02-03T08:47:26.927Z,64.00
2023-02-03T08:48:26.908Z,64.00
2023-02-03T08:49:27.872Z,64.00
2023-02-03T08:50:27.196Z,68.00
2023-02-03T08:51:26.878Z,68.00
2023-02-03T08:52:26.838Z,76.00
2023-02-03T08:53:26.839Z,76.00
2023-02-03T08:54:26.811Z,72.00
2023-02-03T08:55:26.813Z,76.00
2023-02-03T08:56:27.788Z,72.00
2023-02-03T08:57:26.816Z,76.00
2023-02-03T08:58:26.776Z,88.00
2023-02-03T08:59:26.788Z,96.00
2023-02-03T09:00:27.140Z,92.00
2023-02-03T09:01:26.793Z,104.00
2023-02-03T09:02:26.758Z,96.00
2023-02-03T09:03:26.757Z,104.00
2023-02-03T09:04:26.817Z,112.00
2023-02-03T09:05:26.732Z,120.00
2023-02-03T09:06:26.758Z,112.00
2023-02-03T09:07:26.684Z,112.00
2023-02-03T09:08:26.900Z,104.00
2023-02-03T09:09:26.681Z,92.00
2023-02-03T09:10:27.129Z,92.00
2023-02-03T09:11:26.659Z,104.00
2023-02-03T09:12:26.613Z,96.00
2023-02-03T09:13:26.674Z,100.00
2023-02-03T09:14:26.618Z,104.00
2023-02-03T09:15:26.590Z,112.00
2023-02-03T09:16:26.700Z,104.00
2023-02-03T09:17:26.629Z,104.00
2023-02-03T09:18:26.685Z,104.00
2023-02-03T09:19:26.567Z,104.00
2023-02-03T09:20:27.079Z,104.00
2023-02-03T09:21:38.643Z,116.00
2023-02-03T09:22:27.579Z,112.00
2023-02-03T09:23:26.570Z,124.00
2023-02-03T09:24:26.556Z,120.00
2023-02-03T09:25:27.512Z,124.00
2023-02-03T09:26:27.339Z,140.00
2023-02-03T09:27:26.480Z,132.00
2023-02-03T09:28:26.473Z,128.00
2023-02-03T09:29:27.452Z,128.00
2023-02-03T09:30:27.131Z,140.00
2023-02-03T09:31:26.443Z,128.00
2023-02-03T09:32:26.474Z,116.00
2023-02-03T09:33:26.402Z,116.00
2023-02-03T09:34:26.440Z,116.00
2023-02-03T09:35:26.418Z,104.00
2023-02-03T09:36:27.366Z,92.00
2023-02-03T09:37:26.415Z,84.00
2023-02-03T09:38:27.362Z,84.00
2023-02-03T09:39:27.368Z,92.00
2023-02-03T09:40:27.655Z,88.00
2023-02-03T09:41:26.369Z,84.00
2023-02-03T09:42:26.292Z,80.00
2023-02-03T09:43:26.312Z,72.00
2023-02-03T09:44:26.298Z,84.00
2023-02-03T09:45:26.310Z,84.00
2023-02-03T09:46:26.409Z,88.00
2023-02-03T09:47:26.232Z,92.00
2023-02-03T09:48:26.294Z,96.00
2023-02-03T09:49:26.282Z,88.00
2023-02-03T09:50:26.605Z,88.00
2023-02-03T09:51:26.250Z,92.00
2023-02-03T09:52:26.249Z,92.00
2023-02-03T09:53:26.178Z,84.00
2023-02-03T09:54:26.230Z,76.00
2023-02-03T09:55:26.148Z,84.00
2023-02-03T09:56:26.181Z,80.00
2023-02-03T09:57:26.149Z,76.00
2023-02-03T09:58:26.192Z,76.00
2023-02-03T09:59:26.104Z,84.00
2023-02-03T10:00:26.487Z,88.00
2023-02-03T10:01:26.196Z,80.00
2023-02-03T10:02:27.190Z,80.00
2023-02-03T10:03:26.095Z,76.00
2023-02-03T10:04:26.070Z,68.00
2023-02-03T10:05:26.073Z,68.00
2023-02-03T10:06:26.089Z,72.00
2023-02-03T10:07:26.066Z,60.00
2023-02-03T10:08:27.063Z,60.00
2023-02-03T10:09:27.033Z,56.00
2023-02-03T10:10:26.478Z,68.00
2023-02-03T10:11:25.983Z,72.00
2023-02-03T10:12:26.976Z,76.00
2023-02-03T10:13:25.975Z,72.00
2023-02-03T10:14:26.974Z,68.00
2023-02-03T10:15:25.973Z,84.00
2023-02-03T10:16:26.004Z,100.00
2023-02-03T10:17:25.905Z,108.00
2023-02-03T10:18:25.975Z,104.00
2023-02-03T10:19:25.915Z,108.00
2023-02-03T10:20:26.220Z,132.00
2023-02-03T10:21:25.922Z,120.00
2023-02-03T10:22:25.901Z,108.00
2023-02-03T10:23:25.893Z,124.00
2023-02-03T10:24:25.856Z,128.00
2023-02-03T10:25:25.828Z,144.00
2023-02-03T10:26:25.848Z,128.00
2023-02-03T10:27:25.893Z,112.00
2023-02-03T10:28:25.905Z,96.00
2023-02-03T10:29:25.829Z,100.00
2023-02-03T10:30:26.002Z,104.00
2023-02-03T10:31:25.894Z,92.00
2023-02-03T10:32:25.772Z,84.00
2023-02-03T10:33:25.749Z,88.00
2023-02-03T10:34:26.766Z,92.00
2023-02-03T10:35:25.760Z,84.00
2023-02-03T10:36:25.716Z,84.00
2023-02-03T10:37:26.167Z,72.00
2023-02-03T10:38:25.790Z,80.00
2023-02-03T10:39:25.707Z,76.00
2023-02-03T10:40:26.031Z,80.00
2023-02-03T10:41:26.692Z,64.00
2023-02-03T10:42:26.659Z,72.00
2023-02-03T10:43:26.642Z,76.00
2023-02-03T10:44:26.641Z,68.00
2023-02-03T10:45:26.614Z,72.00
2023-02-03T10:46:25.687Z,80.00
2023-02-03T10:47:26.593Z,76.00
2023-02-03T10:48:25.615Z,80.00
2023-02-03T10:49:26.692Z,76.00
2023-02-03T10:50:25.868Z,68.00
2023-02-03T10:51:26.548Z,68.00
2023-02-03T10:52:26.552Z,68.00
2023-02-03T10:53:25.545Z,64.00
2023-02-03T10:54:25.584Z,64.00
2023-02-03T10:55:25.644Z,80.00
2023-02-03T10:56:25.505Z,84.00
2023-02-03T10:57:26.480Z,132.00
2023-02-03T10:58:25.464Z,128.00
2023-02-03T10:59:25.478Z,80.00
2023-02-03T11:00:26.713Z,92.00
2023-02-03T11:01:25.486Z,88.00
2023-02-03T11:02:25.472Z,88.00
2023-02-03T11:03:25.477Z,96.00
2023-02-03T11:04:26.424Z,104.00
2023-02-03T11:05:25.408Z,84.00
2023-02-03T11:06:25.439Z,68.00
2023-02-03T11:07:25.377Z,80.00
2023-02-03T11:08:25.397Z,84.00
2023-02-03T11:09:26.358Z,72.00
2023-02-03T11:10:25.716Z,64.00
2023-02-03T11:11:25.494Z,76.00
2023-02-03T11:12:25.327Z,80.00
2023-02-03T11:13:25.395Z,96.00
2023-02-03T11:14:25.332Z,104.00
2023-02-03T11:15:25.495Z,108.00
2023-02-03T11:16:25.329Z,104.00
2023-02-03T11:17:25.292Z,108.00
2023-02-03T11:18:25.300Z,128.00
2023-02-03T11:19:25.277Z,116.00
2023-02-03T11:20:25.319Z,120.00
2023-02-03T11:21:26.232Z,148.00
2023-02-03T11:22:25.263Z,136.00
2023-02-03T11:23:25.232Z,144.00
2023-02-03T11:24:25.247Z,160.00
2023-02-03T11:25:25.771Z,120.00
2023-02-03T11:26:25.251Z,152.00
2023-02-03T11:27:25.154Z,140.00
2023-02-03T11:28:25.154Z,144.00
2023-02-03T11:29:26.230Z,140.00
2023-02-03T11:30:25.324Z,128.00
2023-02-03T11:31:26.000Z,124.00
2023-02-03T11:32:25.113Z,136.00
2023-02-03T11:33:25.129Z,116.00
2023-02-03T11:34:25.103Z,128.00
2023-02-03T11:35:25.081Z,144.00
2023-02-03T11:36:26.074Z,176.00
2023-02-03T11:37:25.174Z,180.00
2023-02-03T11:38:25.026Z,196.00
2023-02-03T11:39:26.060Z,180.00
2023-02-03T11:40:25.371Z,184.00
2023-02-03T11:41:26.035Z,176.00
2023-02-03T11:42:25.073Z,136.00
2023-02-03T11:43:25.033Z,188.00
2023-02-03T11:44:24.972Z,184.00
2023-02-03T11:45:24.982Z,216.00
2023-02-03T11:46:25.016Z,256.00
2023-02-03T11:47:24.964Z,240.00
2023-02-03T11:48:25.949Z,176.00
2023-02-03T11:49:24.956Z,176.00
2023-02-03T11:50:24.960Z,140.00
2023-02-03T11:51:24.959Z,136.00
2023-02-03T11:52:24.893Z,144.00
2023-02-03T11:53:24.863Z,152.00
2023-02-03T11:54:25.906Z,136.00
2023-02-03T11:55:24.868Z,116.00
2023-02-03T11:56:24.889Z,160.00
2023-02-03T11:57:24.831Z,132.00
2023-02-03T11:58:24.860Z,104.00
2023-02-03T11:59:24.881Z,120.00
2023-02-03T12:00:24.813Z,148.00
2023-02-03T12:01:25.746Z,132.00
2023-02-03T12:02:24.829Z,196.00
2023-02-03T12:03:24.757Z,224.00
2023-02-03T12:04:24.801Z,224.00
2023-02-03T12:05:24.786Z,196.00
2023-02-03T12:06:24.744Z,216.00
2023-02-03T12:07:24.716Z,240.00
2023-02-03T12:08:24.748Z,304.00
2023-02-03T12:09:24.713Z,312.00
2023-02-03T12:10:24.747Z,268.00
2023-02-03T12:11:25.704Z,240.00
2023-02-03T12:12:24.688Z,212.00
2023-02-03T12:13:24.689Z,216.00
2023-02-03T12:14:24.694Z,192.00
2023-02-03T12:15:25.646Z,184.00
2023-02-03T12:16:25.685Z,168.00
2023-02-03T12:17:24.699Z,156.00
2023-02-03T12:18:24.621Z,140.00
2023-02-03T12:19:24.631Z,112.00
2023-02-03T12:20:24.620Z,112.00
2023-02-03T12:21:25.618Z,120.00
2023-02-03T12:22:24.594Z,108.00
2023-02-03T12:23:24.581Z,112.00
2023-02-03T12:24:24.661Z,100.00
2023-02-03T12:25:24.525Z,92.00
2023-02-03T12:26:24.562Z,76.00
2023-02-03T12:27:24.575Z,72.00
2023-02-03T12:28:33.279Z,76.00
2023-02-03T12:29:25.539Z,68.00
2023-02-03T12:30:24.516Z,72.00
2023-02-03T12:31:24.730Z,68.00
2023-02-03T12:32:25.537Z,64.00
2023-02-03T12:33:25.467Z,64.00
2023-02-03T12:34:24.464Z,68.00
2023-02-03T12:35:24.425Z,64.00
2023-02-03T12:36:24.443Z,56.00
2023-02-03T12:37:24.478Z,52.00
2023-02-03T12:38:24.508Z,44.00
2023-02-03T12:39:24.767Z,44.00
2023-02-03T12:40:25.392Z,64.00
2023-02-03T12:41:24.364Z,96.00
2023-02-03T12:42:25.340Z,92.00
2023-02-03T12:43:24.377Z,116.00
2023-02-03T12:44:24.385Z,132.00
2023-02-03T12:45:24.318Z,108.00
2023-02-03T12:46:25.329Z,112.00
2023-02-03T12:47:24.423Z,104.00
2023-02-03T12:48:24.348Z,80.00
2023-02-03T12:49:24.272Z,72.00
2023-02-03T12:50:24.332Z,64.00
2023-02-03T12:51:24.280Z,60.00
2023-02-03T12:52:24.241Z,64.00
2023-02-03T12:53:25.626Z,64.00
2023-02-03T12:54:24.202Z,56.00
2023-02-03T12:55:24.211Z,76.00
2023-02-03T12:56:24.257Z,68.00
2023-02-03T12:57:24.216Z,68.00
2023-02-03T12:58:24.191Z,64.00
2023-02-03T12:59:24.176Z,76.00
2023-02-03T13:00:24.143Z,72.00
2023-02-03T13:01:25.345Z,100.00
2023-02-03T13:02:24.240Z,100.00
2023-02-03T13:03:24.124Z,100.00